Time;durP1;ratioP1;P1;durP2;ratioP2;P2;SDS_P1;SDS_P2;PMS_P1;PMS_P2;Temp;Humidity;BMP_temperature;BMP_pressure;BME280_temperature;BME280_humidity;BME280_pressure;Samples;Min_cycle;Max_cycle;Signal;HPM_P1;HPM_P2
2022/12/20 00:01:31;;;;;;;;;;;;;;;-1.12;91.56;99916.69;4977908;28;19981;-66
2022/12/20 00:03:57;;;;;;;;;;;;;;;-1.08;91.42;99922.50;4981851;28;19918;-67
2022/12/20 00:06:23;;;;;;;;;;;;;;;-1.09;91.70;99926.13;4979044;28;19928;-77
2022/12/20 00:08:52;;;;;;;;;;;;;;;-1.08;92.55;99930.41;4986272;28;20386;-78
2022/12/20 00:11:18;;;;;;;;;;;;;;;-1.09;91.93;99921.69;4991575;28;19913;-77
2022/12/20 00:13:45;;;;;;;;;;;;;;;-1.08;91.94;99917.25;4987502;28;19922;-78
2022/12/20 00:16:15;;;;;;;;;;;;;;;-1.09;92.57;99912.97;4989094;28;20301;-80
2022/12/20 00:18:40;;;;;;;;;;;;;;;-1.12;92.01;99898.22;4989320;28;19914;-79
2022/12/20 00:21:09;;;;;;;;;;;;;;;-1.11;91.76;99886.75;4987573;28;19914;-78
2022/12/20 00:23:35;;;;;;;;;;;;;;;-1.11;92.38;99892.00;4987514;28;19922;-79
2022/12/20 00:26:21;;;;;;;;;;;;;;;-1.13;92.01;99886.03;4986711;28;19918;-77
2022/12/20 00:28:47;;;;;;;;;;;;;;;-1.12;93.09;99892.13;4989477;28;20012;-77
2022/12/20 00:31:14;;;;;;;;;;;;;;;-1.11;92.27;99891.19;4992155;28;20003;-77
2022/12/20 00:33:40;;;;;;;;;;;;;;;-1.14;92.59;99891.44;4992950;28;19918;-77
2022/12/20 00:36:06;;;;;;;;;;;;;;;-1.12;93.33;99886.88;4992349;28;19913;-78
2022/12/20 00:38:31;;;;;;;;;;;;;;;-1.13;93.21;99891.31;4992232;28;19925;-78
2022/12/20 00:41:00;;;;;;;;;;;;;;;-1.15;93.32;99881.84;4983533;28;20005;-77
2022/12/20 00:43:25;;;;;;;;;;;;;;;-1.18;92.75;99880.34;4984345;28;19945;-78
2022/12/20 00:45:50;;;;;;;;;;;;;;;-1.22;92.07;99863.13;4986230;28;20390;-77
2022/12/20 00:48:16;;;;;;;;;;;;;;;-1.21;93.21;99860.38;4984494;28;19972;-77
2022/12/20 00:50:41;;;;;;;;;;;;;;;-1.19;93.52;99854.94;4986379;28;19913;-77
2022/12/20 00:53:08;;;;;;;;;;;;;;;-1.18;92.63;99857.44;4992258;28;19943;-76
2022/12/20 00:55:34;;;;;;;;;;;;;;;-1.15;93.62;99852.88;4991861;28;20137;-76
2022/12/20 00:57:59;;;;;;;;;;;;;;;-1.16;93.42;99854.69;4989503;28;19913;-76
2022/12/20 01:00:32;;;;;;;;;;;;;;;-1.17;93.52;99851.22;4974276;28;19997;-76
2022/12/20 01:02:57;;;;;;;;;;;;;;;-1.15;93.48;99847.59;4988404;28;19972;-76
2022/12/20 01:05:22;;;;;;;;;;;;;;;-1.15;93.76;99848.47;4985527;28;19925;-77
2022/12/20 01:07:48;;;;;;;;;;;;;;;-1.14;93.07;99842.19;4984908;28;19914;-76
2022/12/20 01:10:13;;;;;;;;;;;;;;;-1.14;92.86;99844.84;4983865;28;20547;-76
2022/12/20 01:12:38;;;;;;;;;;;;;;;-1.11;93.87;99838.50;4984287;28;19965;-76
2022/12/20 01:15:04;;;;;;;;;;;;;;;-1.11;93.15;99838.50;4987232;28;20282;-77
2022/12/20 01:17:29;;;;;;;;;;;;;;;-1.12;93.25;99824.47;4984071;28;19918;-77
2022/12/20 01:19:57;;;;;;;;;;;;;;;-1.12;94.10;99818.38;4987994;28;19973;-77
2022/12/20 01:22:22;;;;;;;;;;;;;;;-1.10;94.43;99817.25;4985585;28;19917;-77
2022/12/20 01:24:48;;;;;;;;;;;;;;;-1.09;94.16;99812.84;4985684;28;19961;-77
2022/12/20 01:27:13;;;;;;;;;;;;;;;-1.09;94.59;99816.28;4984261;28;19917;-77
2022/12/20 01:29:38;;;;;;;;;;;;;;;-1.07;94.31;99821.44;4967971;28;19928;-77
2022/12/20 01:32:03;;;;;;;;;;;;;;;-1.05;94.25;99838.78;4969802;28;19924;-76
2022/12/20 01:34:29;;;;;;;;;;;;;;;-1.04;95.02;99845.72;4986056;28;19973;-76
2022/12/20 01:36:54;;;;;;;;;;;;;;;-1.03;94.14;99838.63;4966846;28;20069;-76
2022/12/20 01:39:19;;;;;;;;;;;;;;;-1.05;94.09;99836.13;4983290;28;19914;-75
2022/12/20 01:41:45;;;;;;;;;;;;;;;-1.05;94.93;99824.78;4986267;28;19914;-75
2022/12/20 01:44:16;;;;;;;;;;;;;;;-1.02;95.24;99806.06;4997561;28;19937;-75
2022/12/20 01:46:41;;;;;;;;;;;;;;;-1.03;95.08;99799.09;4996798;28;19914;-76
2022/12/20 01:49:09;;;;;;;;;;;;;;;-1.03;95.15;99802.56;4997927;28;19919;-75
2022/12/20 01:51:38;;;;;;;;;;;;;;;-1.01;94.15;99784.81;4991883;28;19931;-77
2022/12/20 01:54:10;;;;;;;;;;;;;;;-1.00;94.33;99785.69;4985762;28;19918;-76
2022/12/20 01:56:37;;;;;;;;;;;;;;;-0.98;94.93;99770.56;4982093;28;19957;-76
2022/12/20 01:59:02;;;;;;;;;;;;;;;-0.98;94.95;99767.91;4984079;28;19957;-76
2022/12/20 02:01:28;;;;;;;;;;;;;;;-0.97;94.84;99756.41;4982124;28;20409;-75
2022/12/20 02:03:54;;;;;;;;;;;;;;;-0.96;95.00;99751.97;4984077;28;19922;-76
2022/12/20 02:06:20;;;;;;;;;;;;;;;-0.95;94.67;99766.81;4982732;28;20373;-76
2022/12/20 02:08:47;;;;;;;;;;;;;;;-0.95;94.66;99761.53;4983979;28;20004;-76
2022/12/20 02:11:31;;;;;;;;;;;;;;;-0.95;95.47;99764.16;4982170;28;19918;-76
2022/12/20 02:14:17;;;;;;;;;;;;;;;-0.96;95.45;99758.06;4982565;28;19917;-76
2022/12/20 02:16:57;;;;;;;;;;;;;;;-0.93;95.49;99752.50;4983744;28;19929;-76
2022/12/20 02:19:41;;;;;;;;;;;;;;;-0.93;95.15;99756.97;4983442;28;19922;-77
2022/12/20 02:22:29;;;;;;;;;;;;;;;-0.89;94.86;99747.78;4982716;28;20034;-77
2022/12/20 02:25:13;;;;;;;;;;;;;;;-0.88;95.61;99741.56;4983511;28;20282;-76
2022/12/20 02:27:42;;;;;;;;;;;;;;;-0.87;94.94;99736.16;4984981;28;19922;-77
2022/12/20 02:30:09;;;;;;;;;;;;;;;-0.84;95.81;99737.69;4966731;28;19918;-76
2022/12/20 02:32:41;;;;;;;;;;;;;;;-0.83;95.87;99728.81;4966031;28;19936;-76
2022/12/20 02:35:08;;;;;;;;;;;;;;;-0.83;95.46;99716.47;4982073;28;20378;-77
2022/12/20 02:37:34;;;;;;;;;;;;;;;-0.81;95.12;99719.78;4983663;28;20036;-76
2022/12/20 02:40:00;;;;;;;;;;;;;;;-0.81;94.67;99706.59;4967610;28;19961;-77
2022/12/20 02:42:25;;;;;;;;;;;;;;;-0.78;95.15;99689.66;4970310;28;20362;-76
2022/12/20 02:47:47;;;;;;;;;;;;;;;-0.78;94.80;99684.41;4987029;28;19954;-77
2022/12/20 02:50:13;;;;;;;;;;;;;;;-0.76;95.28;99700.06;4991005;28;20013;-76
2022/12/20 02:52:40;;;;;;;;;;;;;;;-0.78;94.81;99708.13;4969409;28;19961;-76
2022/12/20 02:55:06;;;;;;;;;;;;;;;-0.76;95.11;99706.22;4988036;28;19914;-77
2022/12/20 02:57:50;;;;;;;;;;;;;;;-0.74;95.16;99698.13;4988084;28;19914;-78
2022/12/20 03:00:17;;;;;;;;;;;;;;;-0.72;94.31;99688.31;4980574;28;19920;-78
2022/12/20 03:05:48;;;;;;;;;;;;;;;-0.69;95.14;99696.75;4970257;28;19918;-78
2022/12/20 03:08:14;;;;;;;;;;;;;;;-0.68;94.47;99698.41;4984756;28;20349;-78
2022/12/20 03:10:40;;;;;;;;;;;;;;;-0.67;94.44;99701.88;4983247;28;19914;-77
2022/12/20 03:13:05;;;;;;;;;;;;;;;-0.67;93.92;99705.38;4969825;28;19986;-78
2022/12/20 03:15:30;;;;;;;;;;;;;;;-0.67;94.67;99712.44;4986653;28;20053;-77
2022/12/20 03:17:56;;;;;;;;;;;;;;;-0.64;94.78;99709.53;4965996;28;19918;-76
2022/12/20 03:20:21;;;;;;;;;;;;;;;-0.63;94.46;99711.19;4986575;28;19913;-77
2022/12/20 03:22:46;;;;;;;;;;;;;;;-0.61;94.04;99702.16;4970177;28;19953;-76
2022/12/20 03:25:12;;;;;;;;;;;;;;;-0.62;94.88;99695.22;4987562;28;19914;-76
2022/12/20 03:27:38;;;;;;;;;;;;;;;-0.60;93.86;99689.81;4988125;28;19948;-77
2022/12/20 03:30:04;;;;;;;;;;;;;;;-0.59;94.77;99694.94;4984380;28;19921;-77
2022/12/20 03:32:29;;;;;;;;;;;;;;;-0.58;94.68;99687.84;4983773;28;19976;-77
2022/12/20 03:34:54;;;;;;;;;;;;;;;-0.57;94.45;99689.53;4985698;28;19925;-77
2022/12/20 03:37:19;;;;;;;;;;;;;;;-0.56;94.05;99690.34;4984055;28;19969;-77
2022/12/20 03:39:45;;;;;;;;;;;;;;;-0.56;94.67;99688.53;4967546;28;19921;-76
2022/12/20 03:42:10;;;;;;;;;;;;;;;-0.54;94.57;99675.22;4984799;28;19914;-76
2022/12/20 03:44:35;;;;;;;;;;;;;;;-0.57;93.73;99676.34;4985884;28;19995;-76
2022/12/20 03:47:00;;;;;;;;;;;;;;;-0.55;94.39;99660.38;4985560;28;19914;-77
2022/12/20 03:49:26;;;;;;;;;;;;;;;-0.57;94.38;99649.97;4984380;28;20359;-77
2022/12/20 03:51:51;;;;;;;;;;;;;;;-0.56;94.98;99656.91;4985664;28;19914;-76
2022/12/20 03:54:16;;;;;;;;;;;;;;;-0.56;94.73;99642.88;4984496;28;20052;-76
2022/12/20 03:56:42;;;;;;;;;;;;;;;-0.54;94.51;99640.94;4985173;28;19915;-77
2022/12/20 03:59:07;;;;;;;;;;;;;;;-0.54;94.75;99646.22;4984714;28;20037;-76
2022/12/20 04:01:35;;;;;;;;;;;;;;;-0.54;95.02;99639.13;4984678;28;20393;-74
2022/12/20 04:04:01;;;;;;;;;;;;;;;-0.55;94.61;99621.66;4984453;28;19920;-75
2022/12/20 04:06:26;;;;;;;;;;;;;;;-0.56;94.76;99613.88;4984208;28;19914;-75
2022/12/20 04:08:51;;;;;;;;;;;;;;;-0.56;95.59;99611.25;4983515;28;20000;-75
2022/12/20 04:11:16;;;;;;;;;;;;;;;-0.58;95.43;99619.28;4985289;28;19914;-75
2022/12/20 04:13:46;;;;;;;;;;;;;;;-0.59;94.81;99618.47;4985383;28;19914;-76
2022/12/20 04:16:12;;;;;;;;;;;;;;;-0.58;95.25;99619.28;4985128;28;19914;-76
2022/12/20 04:18:37;;;;;;;;;;;;;;;-0.60;95.19;99608.88;4983759;28;19964;-76
2022/12/20 04:21:03;;;;;;;;;;;;;;;-0.60;95.15;99606.25;4984111;28;19918;-76
2022/12/20 04:23:28;;;;;;;;;;;;;;;-0.59;95.93;99617.66;4982695;28;19925;-77
2022/12/20 04:25:54;;;;;;;;;;;;;;;-0.60;95.63;99600.97;4983912;28;19953;-77
2022/12/20 04:28:19;;;;;;;;;;;;;;;-0.60;95.87;99597.50;4982916;28;19918;-77
2022/12/20 04:30:44;;;;;;;;;;;;;;;-0.61;95.09;99601.97;4985173;28;19921;-77
2022/12/20 04:33:09;;;;;;;;;;;;;;;-0.62;95.06;99602.91;4984729;28;19918;-77
2022/12/20 04:35:35;;;;;;;;;;;;;;;-0.65;95.77;99597.97;4983415;28;19914;-76
2022/12/20 04:38:01;;;;;;;;;;;;;;;-0.67;95.38;99597.28;4982519;28;20008;-76
2022/12/20 04:40:26;;;;;;;;;;;;;;;-0.67;95.27;99594.63;4986063;28;20077;-76
2022/12/20 04:42:51;;;;;;;;;;;;;;;-0.63;95.57;99589.91;4984670;28;19953;-76
2022/12/20 04:45:17;;;;;;;;;;;;;;;-0.61;95.70;99586.16;4985251;28;19914;-76
2022/12/20 04:47:42;;;;;;;;;;;;;;;-0.57;95.67;99586.69;4985584;28;20434;-77
2022/12/20 04:50:07;;;;;;;;;;;;;;;-0.57;96.03;99580.59;4987172;28;19924;-77
2022/12/20 04:55:17;;;;;;;;;;;;;;;-0.56;95.83;99595.41;4985245;28;19914;-77
2022/12/20 04:57:42;;;;;;;;;;;;;;;-0.56;95.93;99583.06;4985269;28;19976;-77
2022/12/20 05:00:07;;;;;;;;;;;;;;;-0.56;96.73;99588.34;4966633;28;20383;-77
2022/12/20 05:02:33;;;;;;;;;;;;;;;-0.53;96.23;99587.22;4985443;28;19938;-76
2022/12/20 05:04:58;;;;;;;;;;;;;;;-0.53;95.80;99581.97;4986019;28;20009;-76
2022/12/20 05:07:23;;;;;;;;;;;;;;;-0.53;96.64;99574.88;4983964;28;19918;-76
2022/12/20 05:09:48;;;;;;;;;;;;;;;-0.54;96.45;99582.91;4985094;28;19943;-75
2022/12/20 05:12:14;;;;;;;;;;;;;;;-0.54;96.45;99582.91;4982745;28;20377;-76
2022/12/20 05:14:39;;;;;;;;;;;;;;;-0.54;96.57;99567.91;4985000;28;19917;-75
2022/12/20 05:17:04;;;;;;;;;;;;;;;-0.54;95.64;99575.00;4983044;28;19937;-77
2022/12/20 05:19:29;;;;;;;;;;;;;;;-0.53;95.77;99579.31;4983623;28;19914;-76
2022/12/20 05:27:22;;;;;;;;;;;;;;;-0.56;95.74;99561.13;4984366;28;19921;-77
2022/12/20 05:29:48;;;;;;;;;;;;;;;-0.59;95.71;99557.00;4983536;28;19918;-77
2022/12/20 05:32:13;;;;;;;;;;;;;;;-0.59;95.58;99564.91;4981833;28;20379;-77
2022/12/20 05:34:39;;;;;;;;;;;;;;;-0.59;96.18;99565.72;4982918;28;19918;-77
2022/12/20 05:37:04;;;;;;;;;;;;;;;-0.57;96.78;99564.78;4983638;28;20244;-76
2022/12/20 05:39:29;;;;;;;;;;;;;;;-0.56;96.34;99564.59;4982909;28;20375;-76
2022/12/20 05:41:55;;;;;;;;;;;;;;;-0.54;97.04;99570.56;4983965;28;19914;-76
2022/12/20 05:44:21;;;;;;;;;;;;;;;-0.54;97.05;99567.09;4982656;28;20060;-77
2022/12/20 05:46:46;;;;;;;;;;;;;;;-0.53;97.09;99574.06;4983801;28;19974;-76
2022/12/20 05:49:11;;;;;;;;;;;;;;;-0.52;96.49;99575.69;4982200;28;20358;-77
2022/12/20 05:51:37;;;;;;;;;;;;;;;-0.52;96.82;99565.16;4982454;28;19914;-77
2022/12/20 05:54:02;;;;;;;;;;;;;;;-0.52;96.63;99566.00;4983600;28;20017;-77
2022/12/20 05:56:27;;;;;;;;;;;;;;;-0.51;96.45;99570.28;4983009;28;20286;-77
2022/12/20 05:58:53;;;;;;;;;;;;;;;-0.51;96.34;99570.28;4983344;28;20438;-76
2022/12/20 06:01:19;;;;;;;;;;;;;;;-0.58;96.13;99577.09;4964657;28;20259;-77
2022/12/20 06:03:44;;;;;;;;;;;;;;;-0.57;96.13;99568.22;4985457;28;19921;-76
2022/12/20 06:06:09;;;;;;;;;;;;;;;-0.59;96.12;99565.72;4967242;28;19918;-76
2022/12/20 06:08:35;;;;;;;;;;;;;;;-0.57;96.27;99572.69;4968009;28;19918;-76
2022/12/20 06:11:02;;;;;;;;;;;;;;;-0.54;96.41;99572.38;4985895;28;19930;-76
2022/12/20 06:13:27;;;;;;;;;;;;;;;-0.54;96.35;99561.81;4969127;28;19914;-76
2022/12/20 06:15:52;;;;;;;;;;;;;;;-0.54;97.02;99567.91;4983079;28;19985;-77
2022/12/20 06:18:17;;;;;;;;;;;;;;;-0.54;96.44;99561.81;4982759;28;19921;-76
2022/12/20 06:20:48;;;;;;;;;;;;;;;-0.53;97.28;99552.94;4969774;28;20016;-76
2022/12/20 06:23:13;;;;;;;;;;;;;;;-0.51;97.14;99554.47;4988591;28;19917;-76
2022/12/20 06:25:38;;;;;;;;;;;;;;;-0.51;96.48;99569.47;4988622;28;19980;-77
2022/12/20 06:28:04;;;;;;;;;;;;;;;-0.49;96.85;99578.06;4987946;28;19918;-76
2022/12/20 06:30:29;;;;;;;;;;;;;;;-0.49;97.20;99565.69;4971991;28;19925;-76
2022/12/20 06:32:55;;;;;;;;;;;;;;;-0.48;97.27;99577.09;4987783;28;19914;-77
2022/12/20 06:35:20;;;;;;;;;;;;;;;-0.52;96.79;99579.19;4989170;28;19984;-77
2022/12/20 06:37:45;;;;;;;;;;;;;;;-0.51;96.37;99577.38;4986174;28;19922;-77
2022/12/20 06:40:11;;;;;;;;;;;;;;;-0.54;96.79;99586.38;4973419;28;19914;-78
2022/12/20 06:42:37;;;;;;;;;;;;;;;-0.56;96.97;99575.16;4973608;28;19914;-77
2022/12/20 06:45:03;;;;;;;;;;;;;;;-0.54;96.57;99582.91;4987268;28;20123;-77
2022/12/20 06:47:28;;;;;;;;;;;;;;;-0.56;95.90;99585.69;4987770;28;19961;-76
2022/12/20 06:49:54;;;;;;;;;;;;;;;-0.56;96.45;99584.88;4986502;28;19978;-77
2022/12/20 06:52:19;;;;;;;;;;;;;;;-0.56;96.36;99593.59;4985676;28;20400;-67
2022/12/20 06:54:44;;;;;;;;;;;;;;;-0.58;96.05;99590.28;4986040;28;19925;-66
2022/12/20 06:57:09;;;;;;;;;;;;;;;-0.56;96.79;99590.16;4987195;28;19925;-65
2022/12/20 06:59:35;;;;;;;;;;;;;;;-0.56;96.36;99588.34;4985699;28;19968;-66
2022/12/20 07:02:00;;;;;;;;;;;;;;;-0.54;96.70;99588.19;4987285;28;19945;-65
2022/12/20 07:04:25;;;;;;;;;;;;;;;-0.53;96.57;99589.88;4986557;28;19920;-66
2022/12/20 07:06:51;;;;;;;;;;;;;;;-0.52;97.44;99584.47;4986289;28;19922;-66
2022/12/20 07:09:16;;;;;;;;;;;;;;;-0.51;97.25;99586.09;4986174;28;19918;-66
2022/12/20 07:11:42;;;;;;;;;;;;;;;-0.51;96.69;99591.38;4986836;28;19953;-66
2022/12/20 07:14:07;;;;;;;;;;;;;;;-0.49;96.69;99591.25;4986920;28;19914;-65
2022/12/20 07:16:32;;;;;;;;;;;;;;;-0.49;96.68;99602.63;4986127;28;19917;-66
2022/12/20 07:18:57;;;;;;;;;;;;;;;-0.50;97.53;99598.31;4986068;28;20347;-66
2022/12/20 07:21:23;;;;;;;;;;;;;;;-0.50;96.33;99603.59;4986891;28;20351;-66
2022/12/20 07:23:48;;;;;;;;;;;;;;;-0.49;96.42;99589.44;4985400;28;20013;-66
2022/12/20 07:26:14;;;;;;;;;;;;;;;-0.50;96.32;99595.69;4985341;28;20037;-66
2022/12/20 07:28:39;;;;;;;;;;;;;;;-0.51;97.10;99588.75;4986028;28;19929;-67
2022/12/20 07:31:05;;;;;;;;;;;;;;;-0.49;97.20;99593.88;4984375;28;20029;-66
2022/12/20 07:33:30;;;;;;;;;;;;;;;-0.49;96.91;99583.31;4986035;28;19918;-67
2022/12/20 07:36:00;;;;;;;;;;;;;;;-0.48;96.97;99588.47;4986702;28;20272;-66
2022/12/20 07:38:25;;;;;;;;;;;;;;;-0.49;96.59;99585.97;4985733;28;19945;-66
2022/12/20 07:40:52;;;;;;;;;;;;;;;-0.46;96.65;99586.50;4985770;28;20347;-67
2022/12/20 07:43:17;;;;;;;;;;;;;;;-0.45;96.79;99588.16;4986378;28;19996;-66
2022/12/20 07:45:43;;;;;;;;;;;;;;;-0.44;96.41;99591.66;4985877;28;19917;-66
2022/12/20 07:48:08;;;;;;;;;;;;;;;-0.44;96.60;99592.47;4986096;28;19914;-66
2022/12/20 07:50:36;;;;;;;;;;;;;;;-0.44;96.59;99578.47;4985894;28;19964;-66
2022/12/20 07:53:04;;;;;;;;;;;;;;;-0.44;96.74;99594.28;4986152;28;20356;-66
2022/12/20 07:55:30;;;;;;;;;;;;;;;-0.46;96.83;99598.88;4985089;28;19919;-66
2022/12/20 07:57:58;;;;;;;;;;;;;;;-0.72;96.69;99580.22;4986112;28;19926;-66
2022/12/20 08:00:24;;;;;;;;;;;;;;;-0.49;97.09;99621.06;4986223;28;19929;-66
2022/12/20 08:02:55;;;;;;;;;;;;;;;-0.48;96.69;99606.09;4986266;28;19917;-66
2022/12/20 08:05:21;;;;;;;;;;;;;;;-0.47;96.88;99597.19;4985343;28;19997;-66
2022/12/20 08:07:46;;;;;;;;;;;;;;;-0.48;96.64;99596.38;4984627;28;19979;-66
2022/12/20 08:10:13;;;;;;;;;;;;;;;-0.46;96.74;99610.25;4985278;28;20311;-66
2022/12/20 08:12:39;;;;;;;;;;;;;;;-0.46;97.17;99593.59;4986435;28;19918;-66
2022/12/20 08:15:04;;;;;;;;;;;;;;;-0.46;97.33;99594.41;4985911;28;20504;-66
2022/12/20 08:17:30;;;;;;;;;;;;;;;-0.45;96.92;99597.88;4986181;28;19914;-65
2022/12/20 08:19:56;;;;;;;;;;;;;;;-0.45;96.63;99606.63;4985255;28;19914;-65
2022/12/20 08:22:22;;;;;;;;;;;;;;;-0.43;97.06;99612.59;4985737;28;20000;-66
2022/12/20 08:24:47;;;;;;;;;;;;;;;-0.43;96.72;99619.66;4985433;28;20049;-65
2022/12/20 08:27:12;;;;;;;;;;;;;;;-0.43;96.64;99625.78;4985179;28;19914;-65
2022/12/20 08:29:38;;;;;;;;;;;;;;;-0.44;97.12;99624.13;4984437;28;19917;-66
2022/12/20 08:32:03;;;;;;;;;;;;;;;-0.45;96.51;99619.81;4985745;28;19922;-65
2022/12/20 08:34:29;;;;;;;;;;;;;;;-0.43;97.42;99628.44;4985585;28;19921;-66
2022/12/20 08:36:54;;;;;;;;;;;;;;;-0.43;97.52;99625.78;4983811;28;19988;-66
2022/12/20 08:39:19;;;;;;;;;;;;;;;-0.44;97.70;99613.56;4984084;28;19984;-66
2022/12/20 08:41:45;;;;;;;;;;;;;;;-0.42;97.77;99626.63;4984139;28;20000;-66
2022/12/20 08:44:10;;;;;;;;;;;;;;;-0.42;97.16;99621.34;4985414;28;19948;-66
2022/12/20 08:46:36;;;;;;;;;;;;;;;-0.42;97.98;99637.16;4983683;28;19914;-66
2022/12/20 08:49:01;;;;;;;;;;;;;;;-0.46;97.16;99633.16;4985014;28;19945;-66
2022/12/20 08:51:27;;;;;;;;;;;;;;;-0.47;97.51;99634.94;4984574;28;20004;-65
2022/12/20 08:53:53;;;;;;;;;;;;;;;-0.51;96.94;99638.03;4984732;28;19921;-66
2022/12/20 08:56:19;;;;;;;;;;;;;;;-0.51;98.03;99638.84;4985222;28;19914;-67
2022/12/20 08:58:45;;;;;;;;;;;;;;;-0.51;98.42;99633.56;4984999;28;19992;-66
2022/12/20 09:01:12;;;;;;;;;;;;;;;-0.50;98.68;99634.41;4983784;28;20302;-65
2022/12/20 09:03:37;;;;;;;;;;;;;;;-0.51;98.25;99640.66;4984892;28;19921;-66
2022/12/20 09:06:07;;;;;;;;;;;;;;;-0.47;98.61;99656.03;4984772;28;19914;-65
2022/12/20 09:08:33;;;;;;;;;;;;;;;-0.43;98.92;99661.88;4984111;28;19922;-66
2022/12/20 09:11:05;;;;;;;;;;;;;;;-0.40;98.69;99664.22;4983666;28;19914;-66
2022/12/20 09:13:31;;;;;;;;;;;;;;;-0.37;99.34;99660.47;4983019;28;19994;-65
2022/12/20 09:15:58;;;;;;;;;;;;;;;-0.34;98.88;99663.66;4984274;28;19930;-65
2022/12/20 09:18:24;;;;;;;;;;;;;;;-0.33;98.75;99657.41;4983929;28;19922;-65
2022/12/20 09:20:49;;;;;;;;;;;;;;;-0.33;98.84;99649.50;4983177;28;19918;-66
2022/12/20 09:23:14;;;;;;;;;;;;;;;-0.34;98.98;99655.72;4983799;28;19918;-65
2022/12/20 09:25:39;;;;;;;;;;;;;;;-0.31;98.86;99663.38;4982495;28;19913;-65
2022/12/20 09:28:05;;;;;;;;;;;;;;;-0.29;98.45;99664.06;4983924;28;19965;-64
2022/12/20 09:30:31;;;;;;;;;;;;;;;-0.27;98.29;99651.56;4984751;28;19918;-65
2022/12/20 09:32:56;;;;;;;;;;;;;;;-0.22;99.17;99659.06;4984350;28;19918;-65
2022/12/20 09:35:21;;;;;;;;;;;;;;;-0.18;99.28;99654.31;4982857;28;19984;-65
2022/12/20 09:37:47;;;;;;;;;;;;;;;-0.17;99.12;99648.88;4983286;28;20386;-65
2022/12/20 09:40:17;;;;;;;;;;;;;;;-0.15;98.38;99652.19;4982067;28;20318;-65
2022/12/20 09:42:43;;;;;;;;;;;;;;;-0.15;98.85;99656.66;4983401;28;20340;-65
2022/12/20 09:45:11;;;;;;;;;;;;;;;-0.17;98.31;99656.78;4983412;28;20004;-65
2022/12/20 09:47:36;;;;;;;;;;;;;;;-0.14;98.60;99647.78;4983333;28;19914;-66
2022/12/20 09:50:03;;;;;;;;;;;;;;;-0.12;98.77;99649.28;4983897;28;19918;-66
2022/12/20 09:52:33;;;;;;;;;;;;;;;-0.11;98.17;99665.94;4983614;28;19959;-65
2022/12/20 09:55:02;;;;;;;;;;;;;;;-0.10;98.67;99655.25;4983665;28;19989;-65
2022/12/20 09:57:33;;;;;;;;;;;;;;;-0.06;98.47;99655.78;4983535;28;19964;-66
2022/12/20 09:59:58;;;;;;;;;;;;;;;-0.02;98.59;99659.78;4984099;28;19959;-65
2022/12/20 10:02:24;;;;;;;;;;;;;;;0.01;98.63;99662.16;4983782;28;20324;-65
2022/12/20 10:04:50;;;;;;;;;;;;;;;0.01;98.41;99656.88;4982887;28;20301;-65
2022/12/20 10:07:32;;;;;;;;;;;;;;;0.04;98.11;99656.59;4983924;28;19915;-65
2022/12/20 10:10:16;;;;;;;;;;;;;;;0.04;97.59;99659.22;4983424;28;19918;-66
2022/12/20 10:13:00;;;;;;;;;;;;;;;0.05;98.41;99660.88;4983739;28;19913;-66
2022/12/20 10:15:35;;;;;;;;;;;;;;;0.08;98.01;99663.22;4984046;28;19929;-66
2022/12/20 10:18:00;;;;;;;;;;;;;;;0.08;98.12;99665.03;4983962;28;19918;-66
2022/12/20 10:20:44;;;;;;;;;;;;;;;0.10;97.50;99663.09;4983849;28;20447;-65
2022/12/20 10:23:22;;;;;;;;;;;;;;;0.09;97.82;99664.88;4982484;28;20284;-64
2022/12/20 10:25:53;;;;;;;;;;;;;;;0.10;97.24;99661.28;4983634;28;19914;-65
2022/12/20 10:28:19;;;;;;;;;;;;;;;0.10;97.89;99666.56;4983332;28;20255;-65
2022/12/20 10:30:44;;;;;;;;;;;;;;;0.10;97.71;99671.00;4983360;28;19914;-65
2022/12/20 10:33:18;;;;;;;;;;;;;;;0.12;98.14;99663.78;4981638;28;19968;-65
2022/12/20 10:35:44;;;;;;;;;;;;;;;0.11;97.80;99662.94;4983525;28;19914;-65
2022/12/20 10:38:14;;;;;;;;;;;;;;;0.09;97.26;99659.59;4982904;28;19926;-65
2022/12/20 10:40:44;;;;;;;;;;;;;;;0.10;97.98;99669.19;4982217;28;20378;-65
2022/12/20 10:43:15;;;;;;;;;;;;;;;0.09;97.71;99671.97;4983552;28;19945;-66
2022/12/20 10:45:42;;;;;;;;;;;;;;;0.04;97.24;99667.13;4983863;28;19921;-66
2022/12/20 10:48:25;;;;;;;;;;;;;;;0.05;98.08;99663.50;4983254;28;19921;-65
2022/12/20 10:50:55;;;;;;;;;;;;;;;0.04;97.81;99669.78;4983452;28;19918;-66
2022/12/20 10:53:21;;;;;;;;;;;;;;;0.03;97.41;99665.47;4982582;28;19941;-66
2022/12/20 10:55:47;;;;;;;;;;;;;;;0.03;98.08;99668.09;4983334;28;20379;-65
2022/12/20 10:58:20;;;;;;;;;;;;;;;-0.07;97.18;99659.41;4983260;28;20392;-65
2022/12/20 11:00:46;;;;;;;;;;;;;;;-0.14;97.19;99668.88;4982503;28;20330;-65
2022/12/20 11:03:19;;;;;;;;;;;;;;;-0.13;98.63;99655.53;4982305;28;19921;-65
2022/12/20 11:05:52;;;;;;;;;;;;;;;-0.12;98.50;99659.84;4984996;28;20377;-65
2022/12/20 11:08:17;;;;;;;;;;;;;;;-0.12;98.67;99662.47;4986154;28;19921;-65
2022/12/20 11:10:43;;;;;;;;;;;;;;;-0.17;98.80;99662.06;4986996;28;20278;-65
2022/12/20 11:13:18;;;;;;;;;;;;;;;-0.15;99.46;99661.94;4986573;28;20005;-65
2022/12/20 11:15:47;;;;;;;;;;;;;;;-0.14;99.39;99668.88;4987059;28;19924;-65
2022/12/20 11:18:29;;;;;;;;;;;;;;;-0.15;99.16;99673.31;4987018;28;19918;-64
2022/12/20 11:21:11;;;;;;;;;;;;;;;-0.17;99.18;99683.16;4987042;28;20012;-64
2022/12/20 11:23:39;;;;;;;;;;;;;;;-0.16;100.00;99669.03;4986335;28;20330;-65
2022/12/20 11:26:13;;;;;;;;;;;;;;;-0.13;99.48;99675.81;4987085;28;20013;-66
2022/12/20 11:28:57;;;;;;;;;;;;;;;-0.11;99.43;99658.00;4986683;28;20005;-66
2022/12/20 11:31:47;;;;;;;;;;;;;;;-0.11;100.00;99656.22;4985803;28;19953;-66
2022/12/20 11:34:18;;;;;;;;;;;;;;;-0.08;99.65;99648.00;4986262;28;19920;-65
2022/12/20 11:36:49;;;;;;;;;;;;;;;-0.04;99.91;99643.25;4985256;28;19968;-65
2022/12/20 11:39:28;;;;;;;;;;;;;;;-0.05;99.60;99646.91;4985929;28;19918;-65
2022/12/20 11:42:03;;;;;;;;;;;;;;;-0.10;99.16;99633.31;4986014;28;19921;-65
2022/12/20 11:44:47;;;;;;;;;;;;;;;-0.07;98.92;99633.03;4986448;28;20037;-64
2022/12/20 11:47:31;;;;;;;;;;;;;;;-0.09;99.28;99627.06;4986107;28;19922;-65
2022/12/20 11:49:56;;;;;;;;;;;;;;;-0.05;98.93;99626.59;4985927;28;20300;-67
2022/12/20 11:52:34;;;;;;;;;;;;;;;-0.01;99.94;99614.78;4986012;28;19914;-65
2022/12/20 11:55:03;;;;;;;;;;;;;;;0.03;99.78;99617.97;4985907;28;19918;-65
2022/12/20 11:57:33;;;;;;;;;;;;;;;0.04;99.18;99617.00;4985931;28;20374;-65
2022/12/20 12:00:00;;;;;;;;;;;;;;;0.08;99.62;99623.63;4985997;28;19921;-65
2022/12/20 12:02:43;;;;;;;;;;;;;;;0.06;99.38;99624.78;4985368;28;19924;-65
2022/12/20 12:05:29;;;;;;;;;;;;;;;0.04;98.58;99622.28;4985853;28;19957;-65
2022/12/20 12:08:00;;;;;;;;;;;;;;;-0.01;98.62;99621.88;4984899;28;19922;-65
2022/12/20 12:10:31;;;;;;;;;;;;;;;0.02;99.42;99632.16;4985783;28;20004;-65
2022/12/20 12:13:02;;;;;;;;;;;;;;;0.01;98.78;99622.56;4985453;28;19920;-65
2022/12/20 12:15:30;;;;;;;;;;;;;;;0.00;98.79;99631.47;4985300;28;19918;-66
2022/12/20 12:18:05;;;;;;;;;;;;;;;0.00;98.77;99613.00;4984770;28;19917;-65
2022/12/20 12:20:31;;;;;;;;;;;;;;;0.06;99.13;99609.75;4985945;28;19913;-66
2022/12/20 12:23:09;;;;;;;;;;;;;;;0.08;99.24;99602.50;4985365;28;20493;-65
2022/12/20 12:25:34;;;;;;;;;;;;;;;0.09;99.26;99600.69;4985153;28;19928;-65
2022/12/20 12:28:01;;;;;;;;;;;;;;;0.10;98.51;99599.72;4983001;28;19913;-65
2022/12/20 12:30:28;;;;;;;;;;;;;;;0.08;98.98;99605.16;4985564;28;19921;-65
2022/12/20 12:33:01;;;;;;;;;;;;;;;0.12;99.17;99606.50;4984818;28;19925;-65
2022/12/20 12:35:29;;;;;;;;;;;;;;;0.14;99.32;99607.19;4985277;28;19925;-65
2022/12/20 12:38:17;;;;;;;;;;;;;;;0.15;99.15;99603.59;4984904;28;20040;-65
2022/12/20 12:40:51;;;;;;;;;;;;;;;0.10;98.75;99595.28;4984855;28;19921;-65
2022/12/20 12:43:35;;;;;;;;;;;;;;;0.12;98.48;99590.69;4984548;28;20326;-65
2022/12/20 12:46:03;;;;;;;;;;;;;;;0.13;98.64;99588.84;4984178;28;20012;-64
2022/12/20 12:48:35;;;;;;;;;;;;;;;0.13;97.98;99591.50;4984359;28;19914;-65
2022/12/20 12:51:01;;;;;;;;;;;;;;;0.12;98.32;99598.59;4985049;28;20335;-66
2022/12/20 12:53:43;;;;;;;;;;;;;;;0.12;98.24;99588.03;4985093;28;19949;-65
2022/12/20 12:56:26;;;;;;;;;;;;;;;0.11;97.79;99577.63;4984957;28;19922;-65
2022/12/20 12:59:12;;;;;;;;;;;;;;;0.08;98.05;99580.56;4984473;28;19914;-65
2022/12/20 13:01:48;;;;;;;;;;;;;;;0.07;98.46;99584.19;4968792;28;19914;-63
2022/12/20 13:04:17;;;;;;;;;;;;;;;0.04;98.61;99580.03;4985133;28;20388;-65
2022/12/20 13:06:43;;;;;;;;;;;;;;;0.04;98.81;99576.53;4984321;28;19914;-66